Time;durP1;ratioP1;P1;durP2;ratioP2;P2;SDS_P1;SDS_P2;PMS_P1;PMS_P2;Temp;Humidity;BMP_temperature;BMP_pressure;BME280_temperature;BME280_humidity;BME280_pressure;Samples;Min_cycle;Max_cycle;Signal;HPM_P1;HPM_P2
2022/04/21 00:01:34;;;;;;;15.50;9.38;;;;;;;9.63;80.96;101613.16;4954764;28;20058;-80
2022/04/21 00:04:02;;;;;;;15.82;9.05;;;;;;;9.64;80.81;101617.56;4964395;28;20077;-79
2022/04/21 00:06:30;;;;;;;15.20;8.63;;;;;;;9.55;81.44;101610.31;4967801;28;20262;-80
2022/04/21 00:09:00;;;;;;;15.13;8.88;;;;;;;9.53;81.28;101612.00;4970397;28;20507;-81
2022/04/21 00:11:28;;;;;;;13.88;8.48;;;;;;;9.46;81.89;101608.31;4966639;28;20053;-79
2022/04/21 00:14:09;;;;;;;15.80;9.25;;;;;;;9.40;81.74;101610.75;4955982;28;20058;-74
2022/04/21 00:16:42;;;;;;;18.38;9.07;;;;;;;9.36;82.19;101606.25;4958786;28;20058;-79
2022/04/21 00:19:11;;;;;;;16.55;8.88;;;;;;;9.27;82.57;101603.38;4965795;28;20138;-79
2022/04/21 00:24:28;;;;;;;15.68;8.98;;;;;;;9.26;82.83;101595.50;4963870;28;20078;-80
2022/04/21 00:26:56;;;;;;;15.23;8.95;;;;;;;9.26;82.68;101601.63;4967446;28;20055;-78
2022/04/21 00:29:28;;;;;;;16.02;9.63;;;;;;;9.25;82.87;101599.84;4968908;28;20051;-79
2022/04/21 00:31:57;;;;;;;15.05;9.27;;;;;;;9.13;83.17;101599.47;4964502;28;20154;-79
2022/04/21 00:34:41;;;;;;;14.13;8.57;;;;;;;9.14;83.18;101598.63;4958310;28;20061;-73
2022/04/21 00:37:49;;;;;;;18.88;9.73;;;;;;;9.05;83.37;101603.56;4951831;28;20078;-73
2022/04/21 00:43:29;;;;;;;16.08;8.88;;;;;;;8.95;83.79;101601.50;4954699;28;20516;-73
2022/04/21 00:46:01;;;;;;;13.57;8.77;;;;;;;8.97;83.45;101598.09;4960401;28;20565;-79
2022/04/21 00:48:29;;;;;;;17.77;9.85;;;;;;;8.91;83.79;101599.63;4960675;28;20132;-78
2022/04/21 00:50:58;;;;;;;14.82;8.70;;;;;;;8.88;84.04;101597.78;4959670;28;20057;-80
2022/04/21 00:53:27;;;;;;;15.88;8.98;;;;;;;8.83;84.01;101600.25;4959421;28;20047;-79
2022/04/21 00:56:01;;;;;;;17.00;9.40;;;;;;;8.79;84.14;101590.53;4958792;28;20063;-79
2022/04/21 00:58:30;;;;;;;16.10;9.13;;;;;;;8.80;84.27;101592.31;4953570;28;20046;-72
2022/04/21 01:02:46;;;;;;;14.88;8.88;;;;;;;8.77;84.38;101594.81;4956415;28;20055;-73
2022/04/21 01:03:57;;;;;;;13.68;8.85;;;;;;;8.72;84.68;101596.41;4950450;28;20612;-73
2022/04/21 01:06:35;;;;;;;17.00;9.70;;;;;;;8.65;85.04;101594.44;4954266;28;20057;-73
2022/04/21 01:09:03;;;;;;;13.98;8.90;;;;;;;8.64;84.82;101597.88;4956411;28;20126;-80
2022/04/21 01:11:36;;;;;;;19.38;9.40;;;;;;;8.63;84.81;101595.22;4962171;28;20058;-79
2022/04/21 01:14:06;;;;;;;17.40;9.23;;;;;;;8.55;85.16;101591.47;4961906;28;20376;-78
2022/04/21 01:16:34;;;;;;;17.02;9.30;;;;;;;8.58;84.93;101596.78;4964538;28;20051;-78
2022/04/21 01:19:02;;;;;;;16.05;9.70;;;;;;;8.46;85.48;101586.81;4964938;28;20090;-80
2022/04/21 01:21:32;;;;;;;14.52;8.65;;;;;;;8.44;85.78;101594.59;4959636;28;20051;-80
2022/04/21 01:24:13;;;;;;;15.65;9.40;;;;;;;8.48;85.23;101590.34;4960711;28;20102;-74
2022/04/21 01:26:51;;;;;;;13.80;8.30;;;;;;;8.42;85.09;101590.16;4959711;28;20114;-78
2022/04/21 01:29:35;;;;;;;16.52;9.15;;;;;;;8.39;85.37;101596.16;4957902;28;20085;-73
2022/04/21 01:32:07;;;;;;;17.20;9.05;;;;;;;8.36;85.90;101590.84;4954851;28;20139;-80
2022/04/21 01:34:36;;;;;;;16.27;8.73;;;;;;;8.31;85.74;101586.28;4955473;28;20075;-78
2022/04/21 01:42:39;;;;;;;18.50;9.20;;;;;;;8.25;86.51;101580.84;4961534;28;20070;-80
2022/04/21 01:45:16;;;;;;;18.98;10.05;;;;;;;8.21;87.02;101579.84;4959583;28;20059;-74
2022/04/21 01:48:30;;;;;;;19.88;9.75;;;;;;;8.19;86.72;101581.53;4965204;28;20054;-74
2022/04/21 01:51:07;;;;;;;19.27;9.93;;;;;;;8.15;87.11;101579.63;4957349;28;20181;-73
2022/04/21 01:53:37;;;;;;;16.58;9.13;;;;;;;8.16;87.13;101582.31;4965749;28;20633;-80
2022/04/21 01:56:06;;;;;;;16.92;9.63;;;;;;;8.11;87.03;101583.88;4972859;28;20054;-78
2022/04/21 01:58:33;;;;;;;17.60;9.48;;;;;;;8.08;87.29;101578.53;4969101;28;20054;-78
2022/04/21 02:01:03;;;;;;;16.90;9.15;;;;;;;8.01;87.55;101580.88;4960524;28;20066;-72
2022/04/21 02:03:49;;;;;;;18.85;9.80;;;;;;;7.98;87.89;101584.28;4962845;28;20034;-73
2022/04/21 02:06:25;;;;;;;14.95;9.10;;;;;;;7.98;87.60;101584.28;4960090;28;20147;-73
2022/04/21 02:12:11;;;;;;;15.68;8.63;;;;;;;7.91;87.72;101581.38;4959235;28;20050;-73
2022/04/21 02:14:40;;;;;;;17.05;9.50;;;;;;;7.88;88.03;101584.78;4964910;28;20058;-80
2022/04/21 02:17:23;;;;;;;15.55;8.30;;;;;;;7.84;87.97;101573.34;4968269;28;20261;-74
2022/04/21 02:20:15;;;;;;;14.85;8.15;;;;;;;7.77;88.54;101570.44;4956789;28;20066;-74
2022/04/21 02:22:52;;;;;;;17.88;9.23;;;;;;;7.76;88.80;101573.88;4961919;28;20129;-73
2022/04/21 02:25:39;;;;;;;16.25;9.35;;;;;;;7.71;88.93;101568.50;4960799;28;20366;-74
2022/04/21 02:28:12;;;;;;;16.83;9.02;;;;;;;7.67;89.04;101569.22;4958525;28;20063;-73
2022/04/21 02:30:48;;;;;;;18.40;9.55;;;;;;;7.65;89.29;101581.31;4960056;28;20047;-78
2022/04/21 02:33:20;;;;;;;21.88;9.25;;;;;;;7.69;88.90;101583.22;4962579;28;20050;-79
2022/04/21 02:35:52;;;;;;;16.75;9.65;;;;;;;7.66;89.10;101577.88;4959141;28;20141;-79
2022/04/21 02:38:21;;;;;;;18.55;10.27;;;;;;;7.64;88.95;101566.50;4960089;28;20067;-79
2022/04/21 02:40:50;;;;;;;20.55;11.50;;;;;;;7.64;88.99;101565.59;4965335;28;20055;-79
2022/04/21 02:43:25;;;;;;;17.80;10.40;;;;;;;7.62;88.73;101570.78;4955558;28;20102;-73
2022/04/21 02:46:19;;;;;;;16.00;9.05;;;;;;;7.58;88.71;101562.78;4951571;28;20536;-72
2022/04/21 02:48:59;;;;;;;21.52;10.27;;;;;;;7.53;89.16;101573.94;4953141;28;20043;-73
2022/04/21 02:51:35;;;;;;;17.77;10.15;;;;;;;7.52;88.70;101574.75;4955301;28;20547;-73
2022/04/21 02:59:42;;;;;;;16.52;9.57;;;;;;;7.40;89.38;101558.66;4964666;28;20069;-80
2022/04/21 03:02:10;;;;;;;16.58;9.30;;;;;;;7.43;89.51;101569.19;4965839;28;20093;-80
2022/04/21 03:04:38;;;;;;;21.27;10.60;;;;;;;7.40;89.56;101563.88;4965893;28;20047;-78
2022/04/21 03:07:13;;;;;;;19.02;10.32;;;;;;;7.36;90.05;101564.59;4959790;28;20487;-74
2022/04/21 03:09:45;;;;;;;19.58;9.77;;;;;;;7.32;90.40;101564.41;4960712;28;20172;-72
2022/04/21 03:12:28;;;;;;;17.40;9.25;;;;;;;7.35;90.61;101573.25;4951396;28;20047;-73
2022/04/21 03:17:57;;;;;;;16.95;9.73;;;;;;;7.25;90.75;101560.72;4955831;28;20926;-80
2022/04/21 03:26:17;;;;;;;19.48;11.48;;;;;;;7.15;91.04;101566.41;4964421;28;20043;-82
2022/04/21 03:28:50;;;;;;;20.92;10.13;;;;;;;7.09;90.92;101568.78;4962801;28;20065;-80
2022/04/21 03:31:19;;;;;;;20.65;11.02;;;;;;;7.03;91.51;101558.09;4965961;28;20181;-80
2022/04/21 03:34:01;;;;;;;19.95;10.15;;;;;;;7.03;91.50;101561.59;4968846;28;20081;-79
2022/04/21 03:36:30;;;;;;;17.55;9.88;;;;;;;6.98;91.70;101563.13;4965341;28;20059;-79
2022/04/21 03:38:59;;;;;;;19.27;11.02;;;;;;;6.98;91.86;101565.75;4966939;28;20129;-80
2022/04/21 03:41:27;;;;;;;21.13;10.82;;;;;;;6.95;92.71;101567.34;4965796;28;20085;-80
2022/04/21 03:43:58;;;;;;;20.80;10.35;;;;;;;6.92;92.27;101562.00;4962130;28;20074;-79
2022/04/21 03:46:31;;;;;;;19.60;10.52;;;;;;;6.89;92.63;101568.88;4955577;28;20102;-73
2022/04/21 03:49:03;;;;;;;18.88;10.65;;;;;;;6.87;92.44;101570.53;4962077;28;20059;-82
2022/04/21 03:51:32;;;;;;;19.40;10.38;;;;;;;6.89;92.38;101568.88;4960220;28;20793;-79
2022/04/21 03:54:00;;;;;;;25.65;11.93;;;;;;;6.91;92.29;101575.88;4956608;28;20070;-79
2022/04/21 03:56:37;;;;;;;21.10;12.23;;;;;;;6.92;92.12;101567.22;4954013;28;20050;-72
2022/04/21 03:59:16;;;;;;;18.52;10.40;;;;;;;6.89;92.48;101568.00;4956114;28;20050;-73
2022/04/21 04:01:50;;;;;;;23.92;11.35;;;;;;;6.88;92.18;101577.53;4964093;28;20078;-80
2022/04/21 04:04:20;;;;;;;21.77;11.35;;;;;;;6.87;91.99;101562.72;4960559;28;20073;-80
2022/04/21 04:12:32;;;;;;;20.58;10.93;;;;;;;6.86;92.11;101560.03;4961621;28;20042;-80
2022/04/21 04:15:08;;;;;;;24.15;11.35;;;;;;;6.85;92.11;101560.88;4960143;28;20065;-81
2022/04/21 04:17:36;;;;;;;21.65;11.45;;;;;;;6.80;92.12;101560.69;4963317;28;20078;-80
2022/04/21 04:20:09;;;;;;;26.58;11.93;;;;;;;6.76;92.51;101566.59;4955927;28;20058;-78
2022/04/21 04:22:37;;;;;;;21.23;10.30;;;;;;;6.74;92.42;101573.47;4956779;28;20402;-80
2022/04/21 04:25:08;;;;;;;23.38;13.13;;;;;;;6.75;92.69;101575.25;4956076;28;20077;-79
2022/04/21 04:27:42;;;;;;;21.23;11.70;;;;;;;6.72;92.75;101575.13;4958655;28;20062;-73
2022/04/21 04:30:39;;;;;;;19.05;11.40;;;;;;;6.69;92.61;101569.81;4950684;28;20061;-73
2022/04/21 04:33:08;;;;;;;24.70;13.13;;;;;;;6.69;92.83;101572.41;4962156;28;20051;-80
2022/04/21 04:35:36;;;;;;;27.00;12.88;;;;;;;6.67;93.10;101571.44;4959772;28;20050;-82
2022/04/21 04:44:18;;;;;;;21.80;11.48;;;;;;;6.68;93.40;101572.34;4956836;28;20058;-73
2022/04/21 04:47:01;;;;;;;24.52;12.63;;;;;;;6.68;93.24;101575.84;4955702;28;20062;-74
2022/04/21 04:49:53;;;;;;;20.48;10.77;;;;;;;6.69;93.63;101576.72;4957426;28;20122;-73
2022/04/21 04:52:48;;;;;;;24.90;11.63;;;;;;;6.70;93.30;101573.28;4952798;28;20054;-73
2022/04/21 04:55:37;;;;;;;21.30;11.55;;;;;;;6.74;93.05;101567.38;4954417;28;20058;-74
2022/04/21 05:01:15;;;;;;;22.38;11.63;;;;;;;6.78;93.30;101570.16;4958344;28;20059;-72
2022/04/21 05:04:06;;;;;;;28.83;13.30;;;;;;;6.80;93.47;101573.72;4974059;28;20057;-79
2022/04/21 05:06:38;;;;;;;21.40;11.35;;;;;;;6.86;93.47;101570.47;4969010;28;20058;-80
2022/04/21 05:09:27;;;;;;;29.67;12.65;;;;;;;6.87;93.24;101572.25;4968417;28;20094;-72
2022/04/21 05:12:41;;;;;;;24.60;12.25;;;;;;;6.89;92.96;101579.31;4962115;28;20058;-72
2022/04/21 05:18:25;;;;;;;23.23;12.75;;;;;;;7.02;92.80;101580.69;4956225;28;20138;-73
2022/04/21 05:21:21;;;;;;;26.90;12.30;;;;;;;7.12;92.24;101576.72;4964413;28;20046;-81
2022/04/21 05:23:53;;;;;;;28.80;12.85;;;;;;;7.19;91.95;101576.13;4977213;28;20058;-80
2022/04/21 05:26:26;;;;;;;26.50;12.45;;;;;;;7.28;91.76;101573.84;4966687;28;20077;-80
2022/04/21 05:30:55;;;;;;;29.42;13.13;;;;;;;7.37;90.99;101578.50;4971685;28;20089;-78
2022/04/21 05:31:56;;;;;;;26.00;13.30;;;;;;;7.54;90.70;101582.66;4966765;28;20057;-78
2022/04/21 05:34:26;;;;;;;25.52;12.65;;;;;;;7.68;89.98;101573.59;4966619;28;20054;-80
2022/04/21 05:36:59;;;;;;;24.85;12.20;;;;;;;7.84;89.19;101577.66;4969089;28;20058;-80
2022/04/21 05:39:29;;;;;;;27.45;12.90;;;;;;;7.99;88.08;101583.44;4965390;28;20109;-82
2022/04/21 05:41:59;;;;;;;24.92;13.23;;;;;;;8.16;87.44;101579.69;4964819;28;20054;-79
2022/04/21 05:44:28;;;;;;;23.77;12.32;;;;;;;8.33;86.40;101572.44;4970395;28;20053;-81
2022/04/21 05:46:58;;;;;;;26.05;13.63;;;;;;;8.49;85.12;101577.34;4975170;28;20097;-80
2022/04/21 05:49:27;;;;;;;26.35;12.98;;;;;;;8.69;84.37;101570.16;4970382;28;20055;-81
2022/04/21 05:52:02;;;;;;;29.65;13.98;;;;;;;8.91;83.33;101570.84;4977071;28;20053;-80
2022/04/21 05:54:31;;;;;;;22.02;12.52;;;;;;;9.02;82.15;101569.44;4974290;28;20788;-81
2022/04/21 05:57:00;;;;;;;22.98;12.70;;;;;;;9.24;81.68;101569.28;4970364;28;20066;-79
2022/04/21 05:59:29;;;;;;;25.80;13.07;;;;;;;9.42;80.76;101568.91;4967716;28;20043;-78
2022/04/21 06:02:00;;;;;;;25.30;12.60;;;;;;;9.65;80.39;101564.31;4972682;28;20057;-80
2022/04/21 06:04:29;;;;;;;26.08;12.85;;;;;;;9.85;78.46;101563.16;4969037;28;20105;-81
2022/04/21 06:06:58;;;;;;;27.00;12.48;;;;;;;10.09;78.42;101558.59;4973062;28;20042;-80
2022/04/21 06:09:27;;;;;;;30.02;13.48;;;;;;;10.28;76.66;101564.34;4969351;28;20099;-79
2022/04/21 06:11:56;;;;;;;28.52;12.40;;;;;;;10.42;75.16;101574.31;4969545;28;20066;-80
2022/04/21 06:14:26;;;;;;;22.95;13.13;;;;;;;10.62;74.70;101572.19;4971153;28;20047;-80
2022/04/21 06:16:55;;;;;;;25.48;12.50;;;;;;;10.86;72.72;101578.88;4965360;28;20130;-80
2022/04/21 06:19:25;;;;;;;24.70;12.25;;;;;;;11.01;72.31;101574.00;4968568;28;20324;-80
2022/04/21 06:21:53;;;;;;;24.15;13.20;;;;;;;10.90;71.33;101583.34;4969146;28;20106;-81
2022/04/21 06:24:26;;;;;;;24.23;12.82;;;;;;;11.33;70.34;101567.72;4962811;28;20074;-79
2022/04/21 06:26:56;;;;;;;26.90;12.52;;;;;;;11.38;68.44;101570.44;4964791;28;20051;-81
2022/04/21 06:29:26;;;;;;;22.45;13.02;;;;;;;11.53;68.24;101570.75;4967122;28;20070;-78
2022/04/21 06:31:56;;;;;;;27.73;11.82;;;;;;;11.56;66.43;101562.03;4965645;28;20053;-81
2022/04/21 06:34:24;;;;;;;25.63;12.15;;;;;;;11.66;66.44;101559.63;4979030;28;20058;-80
2022/04/21 06:37:00;;;;;;;25.13;11.45;;;;;;;11.83;65.16;101565.25;4973959;28;20125;-81
2022/04/21 06:39:37;;;;;;;21.98;11.32;;;;;;;11.86;64.48;101565.31;4966465;28;20047;-73
2022/04/21 06:48:37;;;;;;;23.23;11.48;;;;;;;12.07;62.67;101555.22;4917986;29;20071;-73
2022/04/21 06:51:09;;;;;;;22.13;11.95;;;;;;;12.35;62.68;101550.44;4923363;29;20123;-80
2022/04/21 06:53:48;;;;;;;21.85;11.73;;;;;;;12.14;62.61;101558.84;4917388;29;20047;-72
2022/04/21 06:56:22;;;;;;;25.25;10.90;;;;;;;12.39;62.44;101562.78;4914687;29;20204;-73
2022/04/21 06:58:59;;;;;;;21.13;10.75;;;;;;;12.40;62.09;101561.94;4922131;29;20055;-74
2022/04/21 07:01:29;;;;;;;20.08;11.57;;;;;;;12.64;61.08;101559.69;4938432;29;20074;-80
2022/04/21 07:04:00;;;;;;;26.17;12.07;;;;;;;12.76;61.73;101556.38;4929448;29;20695;-79
2022/04/21 07:06:29;;;;;;;23.33;10.95;;;;;;;13.00;60.40;101559.38;4936571;29;20048;-80
2022/04/21 07:08:57;;;;;;;21.17;11.57;;;;;;;13.19;60.38;101551.78;4929997;29;20044;-81
2022/04/21 07:11:30;;;;;;;20.38;11.73;;;;;;;13.09;58.34;101550.72;4929095;29;20056;-73
2022/04/21 07:13:59;;;;;;;21.45;10.80;;;;;;;13.34;59.12;101552.88;4914935;29;20161;-74
2022/04/21 07:16:27;;;;;;;19.30;10.30;;;;;;;13.46;58.12;101549.50;4934381;29;20055;-80
2022/04/21 07:18:56;;;;;;;19.90;9.88;;;;;;;13.54;57.92;101554.84;4930572;28;20154;-80
2022/04/21 07:21:25;;;;;;;21.48;10.77;;;;;;;13.85;57.52;101549.06;4971203;28;20039;-79
2022/04/21 07:23:56;;;;;;;24.95;11.00;;;;;;;13.80;57.53;101542.84;4971614;28;20347;-80
2022/04/21 07:26:25;;;;;;;19.10;10.52;;;;;;;13.67;56.59;101544.47;4968395;28;20066;-79
2022/04/21 07:28:58;;;;;;;23.50;11.15;;;;;;;13.84;57.12;101543.78;4977423;28;20089;-79
2022/04/21 07:31:39;;;;;;;17.33;10.27;;;;;;;13.91;56.18;101549.13;4974573;28;20055;-80
2022/04/21 07:34:07;;;;;;;19.33;10.48;;;;;;;13.83;56.04;101557.81;4966799;28;20051;-73
2022/04/21 07:36:36;;;;;;;18.23;11.00;;;;;;;13.81;56.08;101554.28;4956371;28;20495;-73
2022/04/21 07:39:07;;;;;;;19.67;10.15;;;;;;;14.26;55.51;101554.78;4961521;28;20089;-73
2022/04/21 07:41:35;;;;;;;20.33;9.98;;;;;;;14.39;55.18;101550.50;4955701;28;20827;-73
2022/04/21 07:44:08;;;;;;;19.05;10.55;;;;;;;14.83;54.32;101545.56;4961838;28;20063;-73
2022/04/21 07:46:36;;;;;;;19.73;10.98;;;;;;;14.95;53.51;101544.78;4952652;28;20051;-74
2022/04/21 07:51:51;;;;;;;20.10;10.30;;;;;;;15.09;53.78;101542.22;4954571;28;20067;-80
2022/04/21 07:54:24;;;;;;;20.58;9.68;;;;;;;15.20;52.42;101538.75;4967015;28;20048;-79
2022/04/21 07:56:52;;;;;;;22.63;10.82;;;;;;;15.35;51.95;101538.84;4971793;28;20047;-79
2022/04/21 07:59:28;;;;;;;19.33;10.13;;;;;;;15.40;51.95;101536.22;4967122;28;20050;-80
2022/04/21 08:01:57;;;;;;;19.65;10.32;;;;;;;15.70;51.05;101536.34;4965785;28;20069;-80
2022/04/21 08:04:26;;;;;;;19.20;10.02;;;;;;;15.62;50.34;101542.47;4973283;28;20421;-80
2022/04/21 08:06:55;;;;;;;17.13;9.75;;;;;;;15.64;51.06;101546.03;4967217;28;20051;-79
2022/04/21 08:09:26;;;;;;;25.17;12.82;;;;;;;15.82;51.18;101540.78;4964215;28;20061;-72
2022/04/21 08:11:56;;;;;;;18.42;10.15;;;;;;;15.62;50.70;101550.41;4953900;28;20055;-73
2022/04/21 08:14:29;;;;;;;18.40;9.80;;;;;;;15.33;51.20;101551.16;4970999;28;20047;-80
2022/04/21 08:17:00;;;;;;;20.93;9.67;;;;;;;15.17;51.88;101546.69;4961965;28;20058;-79
2022/04/21 08:19:28;;;;;;;20.58;10.68;;;;;;;15.36;52.48;101550.31;4964479;28;20785;-80
2022/04/21 08:21:57;;;;;;;17.45;10.05;;;;;;;15.69;52.56;101549.56;4963282;28;20070;-80
2022/04/21 08:33:21;;;;;;;17.38;8.93;;;;;;;16.25;51.51;101548.81;4962434;28;20095;-77
2022/04/21 08:35:51;;;;;;;16.10;8.48;;;;;;;15.86;50.95;101549.63;4968242;28;20219;-79
2022/04/21 08:38:30;;;;;;;16.60;8.13;;;;;;;16.02;51.01;101554.06;4962849;28;20129;-78
2022/04/21 08:41:01;;;;;;;17.25;9.25;;;;;;;15.77;50.42;101557.53;4961248;28;20047;-74
2022/04/21 08:43:33;;;;;;;13.35;7.63;;;;;;;15.96;49.96;101559.34;4961923;28;20133;-77
2022/04/21 08:46:05;;;;;;;13.90;7.60;;;;;;;16.21;49.25;101552.34;4959289;28;20055;-74
2022/04/21 08:48:35;;;;;;;12.73;7.10;;;;;;;16.20;48.22;101545.28;4956898;28;20340;-78
2022/04/21 08:51:08;;;;;;;19.20;7.65;;;;;;;16.15;48.06;101554.97;4956399;28;20047;-77
2022/04/21 08:53:37;;;;;;;15.10;8.15;;;;;;;16.48;48.45;101539.13;4957840;28;20093;-74
2022/04/21 08:56:10;;;;;;;15.27;7.68;;;;;;;16.52;47.64;101538.25;4965932;28;20035;-75
2022/04/21 08:58:38;;;;;;;19.75;7.03;;;;;;;16.70;48.49;101539.13;4968082;28;20069;-77
2022/04/21 09:01:10;;;;;;;14.13;7.70;;;;;;;16.71;47.62;101540.91;4966714;28;20690;-78
2022/04/21 09:03:38;;;;;;;14.95;7.38;;;;;;;16.50;46.96;101541.78;4968220;28;20157;-75
2022/04/21 09:06:10;;;;;;;15.45;7.72;;;;;;;16.49;47.32;101534.72;4963110;28;20055;-77
2022/04/21 09:08:38;;;;;;;16.90;7.80;;;;;;;16.38;48.38;101542.66;4965686;28;20411;-77
2022/04/21 09:11:11;;;;;;;13.00;6.57;;;;;;;16.67;48.11;101532.94;4965816;28;20065;-77
2022/04/21 09:13:45;;;;;;;14.93;7.72;;;;;;;16.72;48.12;101537.38;4967048;28;20047;-77
2022/04/21 09:16:34;;;;;;;14.02;7.10;;;;;;;16.84;47.82;101535.59;4967720;28;20051;-77
2022/04/21 09:19:03;;;;;;;13.50;7.70;;;;;;;16.86;47.58;101535.59;4966736;28;20455;-78
2022/04/21 09:21:37;;;;;;;13.38;7.25;;;;;;;16.62;48.18;101534.72;4963639;28;20055;-78
2022/04/21 09:24:24;;;;;;;11.63;6.53;;;;;;;16.61;47.90;101534.72;4964983;28;20043;-78
2022/04/21 09:26:56;;;;;;;12.65;7.43;;;;;;;16.40;48.43;101532.94;4965754;28;20043;-78
2022/04/21 09:29:28;;;;;;;12.07;7.10;;;;;;;16.77;47.82;101531.19;4963651;28;20050;-78
2022/04/21 09:31:58;;;;;;;14.43;6.53;;;;;;;17.15;47.24;101523.16;4960158;28;20047;-77
2022/04/21 09:34:35;;;;;;;10.82;5.90;;;;;;;17.58;45.90;101530.94;4959951;28;20047;-77
2022/04/21 09:37:06;;;;;;;11.88;6.60;;;;;;;17.14;45.92;101532.00;4962596;28;20054;-76
2022/04/21 09:39:39;;;;;;;14.13;6.65;;;;;;;17.56;45.06;101514.16;4962653;28;20054;-77
2022/04/21 09:42:08;;;;;;;10.73;6.82;;;;;;;17.08;45.95;101536.41;4960592;28;20058;-70
2022/04/21 09:47:33;;;;;;;13.80;8.07;;;;;;;17.67;45.94;101509.72;4957645;28;20054;-70
2022/04/21 09:50:14;;;;;;;14.13;7.40;;;;;;;17.87;45.93;101514.88;4957746;28;20051;-70
2022/04/21 09:52:50;;;;;;;13.82;7.90;;;;;;;17.81;46.20;101515.81;4953950;28;20042;-69
2022/04/21 09:55:31;;;;;;;11.80;6.82;;;;;;;17.69;43.96;101505.25;4961403;28;20109;-70
2022/04/21 09:58:07;;;;;;;14.18;7.72;;;;;;;17.64;44.95;101505.28;4960938;28;20078;-70
2022/04/21 10:00:37;;;;;;;12.63;6.93;;;;;;;17.82;44.09;101506.94;4954629;28;20503;-70
2022/04/21 10:03:08;;;;;;;10.40;5.90;;;;;;;17.97;43.35;101498.91;4961241;28;20093;-75
2022/04/21 10:05:38;;;;;;;12.57;7.30;;;;;;;18.01;43.98;101505.06;4963768;28;20051;-76
2022/04/21 10:08:11;;;;;;;12.20;6.78;;;;;;;17.77;43.44;101497.25;4963412;28;20055;-76
2022/04/21 10:10:51;;;;;;;13.63;7.22;;;;;;;17.65;44.75;101495.56;4957950;28;20039;-75
2022/04/21 10:13:24;;;;;;;11.55;6.60;;;;;;;18.01;45.13;101496.22;4957457;28;20055;-75
2022/04/21 10:15:57;;;;;;;10.53;6.60;;;;;;;17.97;44.00;101488.28;4955972;28;20063;-75
2022/04/21 10:18:29;;;;;;;12.30;7.38;;;;;;;17.71;43.96;101487.56;4959244;28;20336;-76
2022/04/21 10:20:58;;;;;;;12.52;6.82;;;;;;;18.24;42.99;101483.66;4960742;28;20054;-76
2022/04/21 10:23:28;;;;;;;11.65;6.20;;;;;;;18.50;43.10;101486.09;4958322;28;20113;-78
2022/04/21 10:26:01;;;;;;;11.57;5.75;;;;;;;18.20;42.32;101488.13;4960884;28;20058;-76
2022/04/21 10:28:56;;;;;;;11.95;6.15;;;;;;;18.12;43.04;101483.75;4955049;28;20042;-76
2022/04/21 10:31:32;;;;;;;11.27;6.57;;;;;;;17.94;42.70;101493.59;4968355;28;20142;-76
2022/04/21 10:34:03;;;;;;;10.82;5.93;;;;;;;17.60;42.10;101484.97;4958948;28;20420;-72
2022/04/21 10:36:41;;;;;;;11.38;6.25;;;;;;;17.53;41.90;101477.03;4956169;28;20050;-73
2022/04/21 10:39:23;;;;;;;10.85;5.80;;;;;;;18.34;42.28;101471.19;4955240;28;20047;-72
2022/04/21 10:42:21;;;;;;;12.68;5.97;;;;;;;18.27;41.36;101468.59;4959166;28;20069;-73
2022/04/21 10:44:51;;;;;;;10.40;5.22;;;;;;;18.35;39.95;101465.88;4956222;28;20789;-72
2022/04/21 10:47:31;;;;;;;12.85;5.57;;;;;;;18.24;40.54;101465.97;4952347;28;20094;-72
2022/04/21 10:50:02;;;;;;;9.55;5.30;;;;;;;18.26;39.31;101460.63;4960634;28;20117;-72
2022/04/21 10:58:57;;;;;;;8.77;4.45;;;;;;;18.36;37.51;101457.00;4955878;28;20122;-71
2022/04/21 11:01:34;;;;;;;8.30;4.35;;;;;;;18.64;37.08;101441.72;4941147;28;20058;-71
2022/04/21 11:04:23;;;;;;;7.82;4.28;;;;;;;18.63;36.21;101439.06;4958887;28;20043;-72
2022/04/21 11:07:12;;;;;;;9.27;4.32;;;;;;;18.55;36.23;101442.66;4954600;28;20055;-72
2022/04/21 11:09:49;;;;;;;10.13;5.00;;;;;;;18.68;36.98;101443.44;4953972;28;20604;-72
2022/04/21 11:12:51;;;;;;;9.80;4.95;;;;;;;18.34;36.83;101444.63;4955747;28;20058;-75
2022/04/21 11:15:34;;;;;;;7.30;3.80;;;;;;;18.33;37.04;101443.75;4957806;28;20062;-77
2022/04/21 11:18:07;;;;;;;8.38;3.80;;;;;;;18.59;36.22;101451.47;4956600;28;20047;-76
2022/04/21 11:20:36;;;;;;;6.95;3.97;;;;;;;18.50;36.01;101432.97;4960536;28;20050;-75
2022/04/21 11:23:08;;;;;;;8.07;4.40;;;;;;;18.52;35.83;101437.38;4955936;28;20050;-75
2022/04/21 11:25:37;;;;;;;8.02;4.57;;;;;;;18.60;36.22;101435.56;4957967;28;20051;-76
2022/04/21 11:28:07;;;;;;;7.72;3.50;;;;;;;18.56;35.16;101424.94;4958061;28;20134;-76
2022/04/21 11:30:35;;;;;;;6.93;3.20;;;;;;;19.03;35.51;101419.09;4960459;28;20061;-76
2022/04/21 11:33:10;;;;;;;6.30;3.28;;;;;;;18.93;34.90;101417.44;4956965;28;20055;-76
2022/04/21 11:35:38;;;;;;;6.40;3.13;;;;;;;18.80;34.49;101426.47;4958085;28;20054;-75
2022/04/21 11:38:08;;;;;;;6.85;3.42;;;;;;;18.97;33.84;101419.16;4956567;28;20050;-76
2022/04/21 11:40:38;;;;;;;6.10;3.00;;;;;;;19.02;34.30;101414.69;4962229;28;20042;-71
2022/04/21 11:43:19;;;;;;;7.97;3.05;;;;;;;19.41;33.46;101415.06;4957232;28;20551;-73
2022/04/21 11:45:56;;;;;;;4.78;2.67;;;;;;;18.78;33.04;101414.97;4951808;28;20475;-77
2022/04/21 11:48:30;;;;;;;5.72;3.13;;;;;;;19.28;33.64;101412.56;4954993;28;20059;-76
2022/04/21 11:50:59;;;;;;;5.93;3.47;;;;;;;19.47;33.60;101402.56;4960765;28;20109;-79
2022/04/21 11:53:33;;;;;;;8.88;3.60;;;;;;;19.34;32.87;101400.09;4954371;28;20062;-76
2022/04/21 11:56:02;;;;;;;6.75;2.97;;;;;;;19.54;33.34;101400.72;4959438;28;20054;-73
2022/04/21 11:58:31;;;;;;;6.03;3.22;;;;;;;19.22;32.91;101402.00;4956931;28;20090;-77
2022/04/21 12:06:40;;;;;;;6.43;3.53;;;;;;;19.48;32.36;101395.44;4957009;28;20058;-75
2022/04/21 12:09:15;;;;;;;7.00;3.60;;;;;;;19.81;32.42;101381.63;4961057;28;20042;-76
2022/04/21 12:11:52;;;;;;;6.43;3.10;;;;;;;19.38;33.11;101388.50;4950951;28;20053;-76
2022/04/21 12:14:22;;;;;;;6.18;3.20;;;;;;;19.54;32.52;101390.06;4955953;28;20054;-73
2022/04/21 12:16:55;;;;;;;9.02;3.50;;;;;;;19.68;33.03;101388.09;4954950;28;20531;-74
2022/04/21 12:19:32;;;;;;;6.68;3.15;;;;;;;19.75;32.78;101389.75;4953529;28;20223;-75
2022/04/21 12:22:07;;;;;;;6.78;3.38;;;;;;;19.42;32.51;101390.22;4956618;28;20130;-76
2022/04/21 12:24:40;;;;;;;5.50;3.78;;;;;;;19.80;32.41;101376.34;4953254;28;20047;-77
2022/04/21 12:27:15;;;;;;;6.70;3.40;;;;;;;19.75;32.71;101384.41;4957993;28;20061;-76
2022/04/21 12:29:49;;;;;;;7.35;3.95;;;;;;;19.58;32.03;101381.16;4956297;28;20663;-76
2022/04/21 12:32:28;;;;;;;8.93;3.95;;;;;;;19.37;32.03;101368.13;4953553;28;20065;-75
2022/04/21 12:34:59;;;;;;;6.40;3.45;;;;;;;19.18;31.94;101367.50;4951838;28;20097;-76
2022/04/21 12:37:29;;;;;;;6.63;3.33;;;;;;;19.72;32.75;101365.84;4950862;28;20050;-77
2022/04/21 12:40:01;;;;;;;8.02;3.60;;;;;;;19.90;31.90;101367.28;4954839;28;20047;-73
2022/04/21 12:42:50;;;;;;;6.05;3.13;;;;;;;19.72;31.86;101360.53;4948036;28;20414;-75
2022/04/21 12:45:28;;;;;;;6.22;3.25;;;;;;;19.80;31.94;101363.03;4950341;28;20126;-76
2022/04/21 12:47:58;;;;;;;7.55;3.38;;;;;;;20.01;32.00;101349.34;4959548;28;20062;-75
2022/04/21 12:50:27;;;;;;;5.80;3.08;;;;;;;19.39;32.82;101342.38;4958805;28;20065;-76
2022/04/21 12:52:58;;;;;;;6.90;3.85;;;;;;;19.83;33.02;101350.53;4951773;28;20126;-72
2022/04/21 12:55:32;;;;;;;7.28;4.25;;;;;;;19.81;31.95;101344.38;4952880;28;20055;-72
2022/04/21 12:58:05;;;;;;;7.25;3.92;;;;;;;20.02;31.71;101352.91;4956146;28;20170;-72
2022/04/21 13:00:34;;;;;;;;;;;;;;;19.62;32.34;101356.25;4956939;28;20079;-72
2022/04/21 13:03:03;;;;;;;8.18;3.95;;;;;;;19.64;32.75;101329.63;4952252;28;19937;-75
2022/04/21 13:05:33;;;;;;;7.13;3.70;;;;;;;19.53;34.14;101335.09;4955337;28;20059;-75
2022/04/21 13:08:01;;;;;;;8.73;3.90;;;;;;;19.42;33.93;101332.56;4953449;28;20160;-76
2022/04/21 13:10:31;;;;;;;7.13;3.70;;;;;;;19.74;34.01;101329.44;4956169;28;20055;-73